sensor_id;sensor_type;location;lat;lon;timestamp;pressure;altitude;pressure_sealevel;temperature;humidity
66398;BME280;54877;51.504;3.894;2023-07-31T00:01:52;101124.19;;;19.62;70.81
66398;BME280;54877;51.504;3.894;2023-07-31T00:04:17;101123.94;;;19.65;70.90
66398;BME280;54877;51.504;3.894;2023-07-31T00:06:43;101117.31;;;19.69;70.79
66398;BME280;54877;51.504;3.894;2023-07-31T00:09:08;101115.78;;;19.56;71.32
66398;BME280;54877;51.504;3.894;2023-07-31T00:11:34;101117.44;;;19.68;70.77
66398;BME280;54877;51.504;3.894;2023-07-31T00:13:59;101120.09;;;19.79;70.76
66398;BME280;54877;51.504;3.894;2023-07-31T00:16:25;101115.16;;;19.63;70.81
66398;BME280;54877;51.504;3.894;2023-07-31T00:18:50;101124.41;;;19.70;70.90
66398;BME280;54877;51.504;3.894;2023-07-31T00:21:16;101116.59;;;19.67;70.53
66398;BME280;54877;51.504;3.894;2023-07-31T00:23:41;101112.16;;;19.77;70.52
66398;BME280;54877;51.504;3.894;2023-07-31T00:26:07;101116.34;;;19.70;70.69
66398;BME280;54877;51.504;3.894;2023-07-31T00:28:32;101108.06;;;19.62;70.62
66398;BME280;54877;51.504;3.894;2023-07-31T00:30:57;101113.44;;;19.62;70.83
66398;BME280;54877;51.504;3.894;2023-07-31T00:33:23;101112.94;;;19.68;70.86
66398;BME280;54877;51.504;3.894;2023-07-31T00:35:48;101115.41;;;19.60;71.10
66398;BME280;54877;51.504;3.894;2023-07-31T00:38:14;101116.59;;;19.67;70.92
66398;BME280;54877;51.504;3.894;2023-07-31T00:40:39;101105.84;;;19.67;70.61
66398;BME280;54877;51.504;3.894;2023-07-31T00:43:05;101108.50;;;19.78;70.18
66398;BME280;54877;51.504;3.894;2023-07-31T00:45:30;101098.59;;;19.79;70.00
66398;BME280;54877;51.504;3.894;2023-07-31T00:47:56;101106.31;;;19.72;70.10
66398;BME280;54877;51.504;3.894;2023-07-31T00:50:23;101094.59;;;19.73;70.03
66398;BME280;54877;51.504;3.894;2023-07-31T00:52:50;101109.25;;;19.69;69.65
66398;BME280;54877;51.504;3.894;2023-07-31T00:55:15;101107.06;;;19.74;69.50
66398;BME280;54877;51.504;3.894;2023-07-31T00:57:41;101104.56;;;19.82;69.62
66398;BME280;54877;51.504;3.894;2023-07-31T01:00:08;101108.78;;;19.64;69.41
66398;BME280;54877;51.504;3.894;2023-07-31T01:02:34;101105.59;;;19.70;69.10
66398;BME280;54877;51.504;3.894;2023-07-31T01:05:01;101103.56;;;19.83;69.09
66398;BME280;54877;51.504;3.894;2023-07-31T01:07:34;101104.13;;;19.66;69.29
66398;BME280;54877;51.504;3.894;2023-07-31T01:10:11;101105.34;;;19.73;69.25
66398;BME280;54877;51.504;3.894;2023-07-31T01:12:44;101096.03;;;19.77;68.75
66398;BME280;54877;51.504;3.894;2023-07-31T01:15:11;101105.59;;;19.70;68.82
66398;BME280;54877;51.504;3.894;2023-07-31T01:17:37;101099.78;;;19.86;68.58
66398;BME280;54877;51.504;3.894;2023-07-31T01:20:05;101091.66;;;19.76;68.71
66398;BME280;54877;51.504;3.894;2023-07-31T01:28:20;101087.19;;;19.86;67.99
66398;BME280;54877;51.504;3.894;2023-07-31T01:31:02;101087.00;;;19.78;68.25
66398;BME280;54877;51.504;3.894;2023-07-31T01:33:32;101083.63;;;19.65;68.48
66398;BME280;54877;51.504;3.894;2023-07-31T01:35:57;101073.44;;;19.80;68.25
66398;BME280;54877;51.504;3.894;2023-07-31T01:38:23;101079.66;;;19.80;68.18
66398;BME280;54877;51.504;3.894;2023-07-31T01:40:52;101065.50;;;19.78;68.18
66398;BME280;54877;51.504;3.894;2023-07-31T01:43:18;101065.03;;;19.73;68.06
66398;BME280;54877;51.504;3.894;2023-07-31T01:45:44;101073.72;;;19.77;67.73
66398;BME280;54877;51.504;3.894;2023-07-31T01:48:09;101067.22;;;19.79;67.70
66398;BME280;54877;51.504;3.894;2023-07-31T01:50:34;101061.16;;;19.66;68.23
66398;BME280;54877;51.504;3.894;2023-07-31T01:53:00;101058.69;;;19.74;68.35
66398;BME280;54877;51.504;3.894;2023-07-31T01:55:25;101056.06;;;19.84;67.95
66398;BME280;54877;51.504;3.894;2023-07-31T01:57:51;101041.78;;;19.83;67.89
66398;BME280;54877;51.504;3.894;2023-07-31T02:00:17;101051.34;;;19.76;67.86
66398;BME280;54877;51.504;3.894;2023-07-31T02:02:43;101040.59;;;19.76;67.69
66398;BME280;54877;51.504;3.894;2023-07-31T02:05:08;101043.56;;;19.73;67.89
66398;BME280;54877;51.504;3.894;2023-07-31T02:07:34;101033.25;;;19.78;67.64
66398;BME280;54877;51.504;3.894;2023-07-31T02:09:59;101019.41;;;19.83;67.89
66398;BME280;54877;51.504;3.894;2023-07-31T02:12:24;101030.31;;;19.81;67.60
66398;BME280;54877;51.504;3.894;2023-07-31T02:14:50;101019.81;;;19.78;67.47
66398;BME280;54877;51.504;3.894;2023-07-31T02:17:15;101022.78;;;19.75;67.62
66398;BME280;54877;51.504;3.894;2023-07-31T02:19:41;101015.06;;;19.82;67.59
66398;BME280;54877;51.504;3.894;2023-07-31T02:22:06;101020.84;;;19.66;67.72
66398;BME280;54877;51.504;3.894;2023-07-31T02:24:31;101014.50;;;19.67;67.80
66398;BME280;54877;51.504;3.894;2023-07-31T02:26:57;101010.59;;;19.71;67.59
66398;BME280;54877;51.504;3.894;2023-07-31T02:29:22;101004.69;;;19.77;67.58
66398;BME280;54877;51.504;3.894;2023-07-31T02:31:47;101001.34;;;19.85;67.08
66398;BME280;54877;51.504;3.894;2023-07-31T02:34:13;101003.63;;;19.89;67.08
66398;BME280;54877;51.504;3.894;2023-07-31T02:36:39;100998.59;;;19.55;67.97
66398;BME280;54877;51.504;3.894;2023-07-31T02:39:04;100992.25;;;19.76;67.60
66398;BME280;54877;51.504;3.894;2023-07-31T02:41:30;100981.50;;;19.76;67.77
66398;BME280;54877;51.504;3.894;2023-07-31T02:43:55;100993.47;;;19.72;67.53
66398;BME280;54877;51.504;3.894;2023-07-31T02:46:20;100981.69;;;19.64;67.96
66398;BME280;54877;51.504;3.894;2023-07-31T02:48:49;100991.31;;;19.66;67.79
66398;BME280;54877;51.504;3.894;2023-07-31T02:51:14;100986.75;;;19.57;68.58
66398;BME280;54877;51.504;3.894;2023-07-31T02:53:40;100986.22;;;19.63;68.51
66398;BME280;54877;51.504;3.894;2023-07-31T02:56:05;100989.22;;;19.49;69.11
66398;BME280;54877;51.504;3.894;2023-07-31T02:58:30;100978.94;;;19.54;69.05
66398;BME280;54877;51.504;3.894;2023-07-31T03:00:57;100970.44;;;19.49;69.36
66398;BME280;54877;51.504;3.894;2023-07-31T03:03:23;100969.84;;;19.34;70.13
66398;BME280;54877;51.504;3.894;2023-07-31T03:05:49;100964.91;;;19.51;70.30
66398;BME280;54877;51.504;3.894;2023-07-31T03:08:14;100963.63;;;19.34;70.64
66398;BME280;54877;51.504;3.894;2023-07-31T03:10:40;100954.44;;;19.48;70.31
66398;BME280;54877;51.504;3.894;2023-07-31T03:13:05;100963.34;;;19.48;70.56
66398;BME280;54877;51.504;3.894;2023-07-31T03:15:31;100959.69;;;19.49;70.60
66398;BME280;54877;51.504;3.894;2023-07-31T03:17:57;100956.06;;;19.39;70.92
66398;BME280;54877;51.504;3.894;2023-07-31T03:20:22;100946.84;;;19.21;71.49
66398;BME280;54877;51.504;3.894;2023-07-31T03:22:48;100950.91;;;19.36;71.37
66398;BME280;54877;51.504;3.894;2023-07-31T03:25:13;100949.47;;;19.32;71.26
66398;BME280;54877;51.504;3.894;2023-07-31T03:27:39;100937.03;;;19.31;71.36
66398;BME280;54877;51.504;3.894;2023-07-31T03:30:05;100936.31;;;19.29;71.49
66398;BME280;54877;51.504;3.894;2023-07-31T03:32:30;100934.47;;;19.29;71.57
66398;BME280;54877;51.504;3.894;2023-07-31T03:34:56;100926.00;;;19.45;71.08
66398;BME280;54877;51.504;3.894;2023-07-31T03:37:22;100919.97;;;19.53;70.69
66398;BME280;54877;51.504;3.894;2023-07-31T03:39:48;100927.06;;;19.54;70.71
66398;BME280;54877;51.504;3.894;2023-07-31T03:42:13;100907.81;;;19.49;70.57
66398;BME280;54877;51.504;3.894;2023-07-31T03:44:38;100912.56;;;19.45;71.19
66398;BME280;54877;51.504;3.894;2023-07-31T03:47:04;100920.66;;;19.34;71.54
66398;BME280;54877;51.504;3.894;2023-07-31T03:49:30;100909.66;;;19.37;71.66
66398;BME280;54877;51.504;3.894;2023-07-31T03:51:55;100902.59;;;19.36;71.66
66398;BME280;54877;51.504;3.894;2023-07-31T03:54:21;100903.44;;;19.36;71.72
66398;BME280;54877;51.504;3.894;2023-07-31T03:56:46;100898.69;;;19.40;71.69
66398;BME280;54877;51.504;3.894;2023-07-31T03:59:12;100890.22;;;19.24;72.21
66398;BME280;54877;51.504;3.894;2023-07-31T04:01:37;100886.59;;;19.14;72.51
66398;BME280;54877;51.504;3.894;2023-07-31T04:04:02;100890.03;;;19.16;72.77
66398;BME280;54877;51.504;3.894;2023-07-31T04:06:28;100890.22;;;19.24;72.32
66398;BME280;54877;51.504;3.894;2023-07-31T04:08:53;100884.72;;;19.25;72.69
66398;BME280;54877;51.504;3.894;2023-07-31T04:11:19;100880.59;;;19.21;73.02
66398;BME280;54877;51.504;3.894;2023-07-31T04:13:44;100881.56;;;19.20;73.05
66398;BME280;54877;51.504;3.894;2023-07-31T04:16:09;100876.16;;;19.11;73.37
66398;BME280;54877;51.504;3.894;2023-07-31T04:18:35;100871.91;;;18.97;73.97
66398;BME280;54877;51.504;3.894;2023-07-31T04:21:00;100875.72;;;18.95;74.39
66398;BME280;54877;51.504;3.894;2023-07-31T04:23:27;100875.53;;;19.07;74.41
66398;BME280;54877;51.504;3.894;2023-07-31T04:25:52;100865.78;;;19.06;74.32
66398;BME280;54877;51.504;3.894;2023-07-31T04:28:18;100879.13;;;18.97;74.62
66398;BME280;54877;51.504;3.894;2023-07-31T04:30:43;100866.84;;;18.94;75.05
66398;BME280;54877;51.504;3.894;2023-07-31T04:33:08;100869.31;;;19.07;74.67
66398;BME280;54877;51.504;3.894;2023-07-31T04:35:34;100867.50;;;19.07;74.45
66398;BME280;54877;51.504;3.894;2023-07-31T04:37:59;100861.72;;;19.12;74.31
66398;BME280;54877;51.504;3.894;2023-07-31T04:40:25;100865.25;;;19.12;74.38
66398;BME280;54877;51.504;3.894;2023-07-31T04:42:50;100868.22;;;19.09;74.77
66398;BME280;54877;51.504;3.894;2023-07-31T04:45:15;100854.13;;;19.17;74.10
66398;BME280;54877;51.504;3.894;2023-07-31T04:47:42;100851.09;;;18.90;74.91
66398;BME280;54877;51.504;3.894;2023-07-31T04:50:07;100846.69;;;19.00;74.68
66398;BME280;54877;51.504;3.894;2023-07-31T04:52:33;100846.09;;;18.96;74.92
66398;BME280;54877;51.504;3.894;2023-07-31T04:54:58;100848.63;;;18.98;75.06
66398;BME280;54877;51.504;3.894;2023-07-31T04:57:23;100844.97;;;18.99;75.06
66398;BME280;54877;51.504;3.894;2023-07-31T04:59:49;100839.66;;;19.08;74.79
66398;BME280;54877;51.504;3.894;2023-07-31T05:02:14;100842.63;;;19.05;74.99
66398;BME280;54877;51.504;3.894;2023-07-31T05:04:40;100837.44;;;18.93;75.48
66398;BME280;54877;51.504;3.894;2023-07-31T05:07:05;100835.16;;;19.09;75.02
66398;BME280;54877;51.504;3.894;2023-07-31T05:09:30;100839.75;;;19.18;74.82
66398;BME280;54877;51.504;3.894;2023-07-31T05:11:56;100834.63;;;19.15;74.99
66398;BME280;54877;51.504;3.894;2023-07-31T05:14:21;100824.16;;;19.12;74.91
66398;BME280;54877;51.504;3.894;2023-07-31T05:16:48;100832.81;;;19.15;75.01
66398;BME280;54877;51.504;3.894;2023-07-31T05:19:13;100836.34;;;19.16;75.26
66398;BME280;54877;51.504;3.894;2023-07-31T05:21:39;100823.50;;;18.99;75.72
66398;BME280;54877;51.504;3.894;2023-07-31T05:24:04;100827.28;;;19.17;75.28
66398;BME280;54877;51.504;3.894;2023-07-31T05:26:30;100821.53;;;19.01;75.95
66398;BME280;54877;51.504;3.894;2023-07-31T05:28:55;100827.53;;;19.14;75.51
66398;BME280;54877;51.504;3.894;2023-07-31T05:31:21;100830.97;;;19.16;75.57
66398;BME280;54877;51.504;3.894;2023-07-31T05:33:47;100816.28;;;19.20;75.45
66398;BME280;54877;51.504;3.894;2023-07-31T05:36:14;100814.34;;;19.01;76.00
66398;BME280;54877;51.504;3.894;2023-07-31T05:38:40;100828.41;;;19.14;75.69
66398;BME280;54877;51.504;3.894;2023-07-31T05:41:05;100821.34;;;19.13;75.69
66398;BME280;54877;51.504;3.894;2023-07-31T05:43:31;100828.81;;;19.10;76.30
66398;BME280;54877;51.504;3.894;2023-07-31T05:45:56;100823.56;;;19.08;76.24
66398;BME280;54877;51.504;3.894;2023-07-31T05:48:21;100821.53;;;19.01;76.78
66398;BME280;54877;51.504;3.894;2023-07-31T05:50:47;100823.03;;;19.14;76.29
66398;BME280;54877;51.504;3.894;2023-07-31T05:53:12;100820.69;;;19.21;76.23
66398;BME280;54877;51.504;3.894;2023-07-31T05:55:38;100822.19;;;19.14;76.38
66398;BME280;54877;51.504;3.894;2023-07-31T05:58:03;100813.56;;;19.10;76.79
66398;BME280;54877;51.504;3.894;2023-07-31T06:00:28;100808.38;;;18.98;77.24
66398;BME280;54877;51.504;3.894;2023-07-31T06:02:54;100815.84;;;19.15;76.95
66398;BME280;54877;51.504;3.894;2023-07-31T06:05:19;100817.09;;;19.11;76.96
66398;BME280;54877;51.504;3.894;2023-07-31T06:07:45;100817.38;;;19.08;77.22
66398;BME280;54877;51.504;3.894;2023-07-31T06:10:10;100801.81;;;19.11;77.07
66398;BME280;54877;51.504;3.894;2023-07-31T06:12:36;100808.31;;;19.09;77.29
66398;BME280;54877;51.504;3.894;2023-07-31T06:15:02;100804.84;;;19.18;77.24
66398;BME280;54877;51.504;3.894;2023-07-31T06:17:28;100804.13;;;19.16;77.17
66398;BME280;54877;51.504;3.894;2023-07-31T06:19:56;100803.06;;;19.28;76.65
66398;BME280;54877;51.504;3.894;2023-07-31T06:22:22;100805.38;;;19.32;76.47
66398;BME280;54877;51.504;3.894;2023-07-31T06:24:47;100800.63;;;19.25;76.88
66398;BME280;54877;51.504;3.894;2023-07-31T06:27:13;100800.53;;;19.26;77.07
66398;BME280;54877;51.504;3.894;2023-07-31T06:29:38;100794.03;;;19.29;76.74
66398;BME280;54877;51.504;3.894;2023-07-31T06:32:04;100785.72;;;19.32;76.80
66398;BME280;54877;51.504;3.894;2023-07-31T06:34:29;100797.94;;;19.25;76.86
66398;BME280;54877;51.504;3.894;2023-07-31T06:36:55;100790.13;;;19.33;76.63
66398;BME280;54877;51.504;3.894;2023-07-31T06:39:21;100782.06;;;19.33;76.72
66398;BME280;54877;51.504;3.894;2023-07-31T06:41:47;100781.47;;;19.29;76.80
66398;BME280;54877;51.504;3.894;2023-07-31T06:44:12;100781.84;;;19.25;77.00
66398;BME280;54877;51.504;3.894;2023-07-31T06:46:37;100787.22;;;19.25;77.30
66398;BME280;54877;51.504;3.894;2023-07-31T06:49:03;100787.69;;;19.30;77.11
66398;BME280;54877;51.504;3.894;2023-07-31T06:51:28;100791.53;;;19.37;77.04
66398;BME280;54877;51.504;3.894;2023-07-31T06:53:56;100787.09;;;19.26;77.41
66398;BME280;54877;51.504;3.894;2023-07-31T06:56:22;100792.00;;;19.42;77.00
66398;BME280;54877;51.504;3.894;2023-07-31T06:58:47;100782.97;;;19.43;76.93
66398;BME280;54877;51.504;3.894;2023-07-31T07:01:13;100794.44;;;19.45;76.71
66398;BME280;54877;51.504;3.894;2023-07-31T07:03:38;100784.56;;;19.55;76.73
66398;BME280;54877;51.504;3.894;2023-07-31T07:06:03;100777.00;;;19.60;76.45
66398;BME280;54877;51.504;3.894;2023-07-31T07:08:29;100786.47;;;19.64;76.56
66398;BME280;54877;51.504;3.894;2023-07-31T07:10:54;100801.59;;;19.65;76.54
66398;BME280;54877;51.504;3.894;2023-07-31T07:13:20;100791.16;;;19.72;76.15
66398;BME280;54877;51.504;3.894;2023-07-31T07:15:49;100790.41;;;19.60;76.61
66398;BME280;54877;51.504;3.894;2023-07-31T07:18:15;100785.91;;;19.70;76.45
66398;BME280;54877;51.504;3.894;2023-07-31T07:20:40;100784.03;;;19.61;76.17
66398;BME280;54877;51.504;3.894;2023-07-31T07:23:11;100780.38;;;19.62;76.40
66398;BME280;54877;51.504;3.894;2023-07-31T07:25:37;100778.28;;;19.66;76.26
66398;BME280;54877;51.504;3.894;2023-07-31T07:28:03;100775.00;;;19.62;76.14
66398;BME280;54877;51.504;3.894;2023-07-31T07:30:28;100780.03;;;19.46;76.74
66398;BME280;54877;51.504;3.894;2023-07-31T07:32:54;100776.31;;;19.68;76.14
66398;BME280;54877;51.504;3.894;2023-07-31T07:35:19;100773.19;;;19.63;76.45
66398;BME280;54877;51.504;3.894;2023-07-31T07:37:44;100769.03;;;19.49;76.76
66398;BME280;54877;51.504;3.894;2023-07-31T07:40:10;100777.78;;;19.51;76.73
66398;BME280;54877;51.504;3.894;2023-07-31T07:42:35;100782.91;;;19.64;76.38
66398;BME280;54877;51.504;3.894;2023-07-31T07:45:01;100772.16;;;19.54;76.55
66398;BME280;54877;51.504;3.894;2023-07-31T07:47:27;100769.91;;;19.59;76.61
66398;BME280;54877;51.504;3.894;2023-07-31T07:49:52;100776.75;;;19.73;76.28
66398;BME280;54877;51.504;3.894;2023-07-31T07:52:17;100787.81;;;19.79;75.88
66398;BME280;54877;51.504;3.894;2023-07-31T07:54:43;100782.25;;;19.71;76.09
66398;BME280;54877;51.504;3.894;2023-07-31T07:57:08;100781.41;;;19.71;75.51
66398;BME280;54877;51.504;3.894;2023-07-31T07:59:33;100771.09;;;19.76;75.51
66398;BME280;54877;51.504;3.894;2023-07-31T08:01:59;100779.78;;;19.59;75.91
66398;BME280;54877;51.504;3.894;2023-07-31T08:04:24;100777.78;;;19.51;76.27
66398;BME280;54877;51.504;3.894;2023-07-31T08:06:50;100775.88;;;19.72;75.66
66398;BME280;54877;51.504;3.894;2023-07-31T08:09:15;100773.38;;;19.80;75.67
66398;BME280;54877;51.504;3.894;2023-07-31T08:11:40;100774.75;;;19.75;75.40
66398;BME280;54877;51.504;3.894;2023-07-31T08:14:06;100774.59;;;19.67;75.76
66398;BME280;54877;51.504;3.894;2023-07-31T08:16:31;100768.84;;;19.81;75.47
66398;BME280;54877;51.504;3.894;2023-07-31T08:18:57;100762.63;;;19.80;75.67
66398;BME280;54877;51.504;3.894;2023-07-31T08:21:22;100761.84;;;19.99;74.75
66398;BME280;54877;51.504;3.894;2023-07-31T08:23:48;100761.53;;;19.92;74.92
66398;BME280;54877;51.504;3.894;2023-07-31T08:26:17;100774.81;;;19.94;74.76
66398;BME280;54877;51.504;3.894;2023-07-31T08:28:43;100767.75;;;20.03;74.71
66398;BME280;54877;51.504;3.894;2023-07-31T08:31:08;100767.19;;;19.89;74.80
66398;BME280;54877;51.504;3.894;2023-07-31T08:33:34;100756.97;;;19.83;75.06
66398;BME280;54877;51.504;3.894;2023-07-31T08:35:59;100759.13;;;19.89;75.26
66398;BME280;54877;51.504;3.894;2023-07-31T08:38:26;100764.09;;;20.04;74.77
66398;BME280;54877;51.504;3.894;2023-07-31T08:40:51;100756.03;;;20.04;74.94
66398;BME280;54877;51.504;3.894;2023-07-31T08:43:17;100755.50;;;20.10;74.83
66398;BME280;54877;51.504;3.894;2023-07-31T08:45:45;100746.56;;;20.19;74.58
66398;BME280;54877;51.504;3.894;2023-07-31T08:48:12;100753.97;;;20.36;74.32
66398;BME280;54877;51.504;3.894;2023-07-31T08:50:38;100750.31;;;20.37;74.00
66398;BME280;54877;51.504;3.894;2023-07-31T08:53:04;100756.41;;;20.48;73.93
66398;BME280;54877;51.504;3.894;2023-07-31T08:55:29;100748.47;;;20.47;74.04
66398;BME280;54877;51.504;3.894;2023-07-31T08:57:57;100745.50;;;20.50;74.06
66398;BME280;54877;51.504;3.894;2023-07-31T09:00:24;100752.03;;;20.57;74.06
66398;BME280;54877;51.504;3.894;2023-07-31T09:02:53;100752.56;;;20.41;73.98
66398;BME280;54877;51.504;3.894;2023-07-31T09:05:35;100758.66;;;20.53;73.71
66398;BME280;54877;51.504;3.894;2023-07-31T09:08:01;100749.19;;;20.49;73.54
66398;BME280;54877;51.504;3.894;2023-07-31T09:10:29;100749.19;;;20.49;73.91
66398;BME280;54877;51.504;3.894;2023-07-31T09:12:54;100744.34;;;20.52;73.92
66398;BME280;54877;51.504;3.894;2023-07-31T09:15:20;100743.78;;;20.59;73.65
66398;BME280;54877;51.504;3.894;2023-07-31T09:17:48;100743.78;;;20.59;73.80
66398;BME280;54877;51.504;3.894;2023-07-31T09:20:25;100742.94;;;20.58;73.92
66398;BME280;54877;51.504;3.894;2023-07-31T09:22:50;100744.09;;;20.65;73.83
66398;BME280;54877;51.504;3.894;2023-07-31T09:25:21;100743.34;;;20.63;73.65
66398;BME280;54877;51.504;3.894;2023-07-31T09:27:54;100731.78;;;20.63;73.95
66398;BME280;54877;51.504;3.894;2023-07-31T09:30:22;100727.94;;;20.65;73.84
66398;BME280;54877;51.504;3.894;2023-07-31T09:32:48;100727.34;;;20.71;73.97
66398;BME280;54877;51.504;3.894;2023-07-31T09:37:52;100721.22;;;20.98;72.71
66398;BME280;54877;51.504;3.894;2023-07-31T09:42:53;100720.69;;;20.75;73.07
66398;BME280;54877;51.504;3.894;2023-07-31T09:45:21;100711.47;;;20.87;72.76
66398;BME280;54877;51.504;3.894;2023-07-31T09:47:48;100721.41;;;20.77;73.39
66398;BME280;54877;51.504;3.894;2023-07-31T09:50:14;100719.72;;;20.76;72.99
66398;BME280;54877;51.504;3.894;2023-07-31T09:52:40;100720.56;;;20.67;73.19
66398;BME280;54877;51.504;3.894;2023-07-31T09:55:05;100717.44;;;20.81;72.78
66398;BME280;54877;51.504;3.894;2023-07-31T09:57:31;100719.97;;;20.83;73.04
66398;BME280;54877;51.504;3.894;2023-07-31T09:59:57;100712.34;;;20.78;73.23
66398;BME280;54877;51.504;3.894;2023-07-31T10:02:24;100720.38;;;20.88;73.13
66398;BME280;54877;51.504;3.894;2023-07-31T10:04:51;100712.06;;;20.81;73.09
66398;BME280;54877;51.504;3.894;2023-07-31T10:07:19;100720.81;;;20.83;72.95
66398;BME280;54877;51.504;3.894;2023-07-31T10:09:47;100733.25;;;20.94;72.94
66398;BME280;54877;51.504;3.894;2023-07-31T10:12:14;100725.75;;;20.88;73.12
66398;BME280;54877;51.504;3.894;2023-07-31T10:14:44;100733.00;;;20.87;73.28
66398;BME280;54877;51.504;3.894;2023-07-31T10:17:10;100729.47;;;20.87;73.47
66398;BME280;54877;51.504;3.894;2023-07-31T10:19:36;100721.63;;;20.93;73.28
66398;BME280;54877;51.504;3.894;2023-07-31T10:22:02;100726.72;;;20.96;73.31
66398;BME280;54877;51.504;3.894;2023-07-31T10:24:28;100719.97;;;20.92;73.31
66398;BME280;54877;51.504;3.894;2023-07-31T10:26:54;100715.56;;;20.91;73.06
66398;BME280;54877;51.504;3.894;2023-07-31T10:29:23;100719.13;;;20.82;73.43
66398;BME280;54877;51.504;3.894;2023-07-31T10:31:49;100709.78;;;20.86;73.42
66398;BME280;54877;51.504;3.894;2023-07-31T10:34:17;100717.16;;;20.84;73.13
66398;BME280;54877;51.504;3.894;2023-07-31T10:36:42;100713.72;;;21.01;72.87
66398;BME280;54877;51.504;3.894;2023-07-31T10:39:53;100701.09;;;21.12;72.98
66398;BME280;54877;51.504;3.894;2023-07-31T10:42:11;100683.34;;;21.19;72.90
66398;BME280;54877;51.504;3.894;2023-07-31T10:44:37;100682.00;;;21.32;72.49
66398;BME280;54877;51.504;3.894;2023-07-31T10:47:04;100680.16;;;21.33;72.41
66398;BME280;54877;51.504;3.894;2023-07-31T10:49:29;100681.25;;;21.13;72.59
66398;BME280;54877;51.504;3.894;2023-07-31T10:51:56;100691.34;;;21.38;72.20
66398;BME280;54877;51.504;3.894;2023-07-31T10:54:22;100691.75;;;21.43;72.03
66398;BME280;54877;51.504;3.894;2023-07-31T10:56:50;100682.94;;;21.50;71.71
66398;BME280;54877;51.504;3.894;2023-07-31T10:59:15;100689.06;;;21.70;71.31
66398;BME280;54877;51.504;3.894;2023-07-31T11:01:52;100678.97;;;21.72;71.29
66398;BME280;54877;51.504;3.894;2023-07-31T11:04:23;100686.16;;;21.81;71.13
66398;BME280;54877;51.504;3.894;2023-07-31T11:06:57;100672.81;;;21.80;71.26
66398;BME280;54877;51.504;3.894;2023-07-31T11:09:24;100675.38;;;21.81;71.52
66398;BME280;54877;51.504;3.894;2023-07-31T11:11:54;100678.19;;;21.89;71.19
66398;BME280;54877;51.504;3.894;2023-07-31T11:14:20;100665.22;;;21.93;71.84
66398;BME280;54877;51.504;3.894;2023-07-31T11:16:46;100668.28;;;21.80;72.37
66398;BME280;54877;51.504;3.894;2023-07-31T11:19:18;100668.09;;;21.91;72.28
66398;BME280;54877;51.504;3.894;2023-07-31T11:21:46;100671.09;;;21.88;71.85
66398;BME280;54877;51.504;3.894;2023-07-31T11:24:13;100676.06;;;21.83;71.85
66398;BME280;54877;51.504;3.894;2023-07-31T11:26:38;100679.34;;;21.77;72.09
66398;BME280;54877;51.504;3.894;2023-07-31T11:29:10;100668.09;;;21.64;72.70
66398;BME280;54877;51.504;3.894;2023-07-31T11:31:41;100673.59;;;21.45;73.76
66398;BME280;54877;51.504;3.894;2023-07-31T11:34:10;100677.97;;;21.46;74.15
66398;BME280;54877;51.504;3.894;2023-07-31T11:36:35;100669.00;;;21.55;74.07
66398;BME280;54877;51.504;3.894;2023-07-31T11:39:10;100673.59;;;21.45;74.85
66398;BME280;54877;51.504;3.894;2023-07-31T11:41:36;100672.72;;;21.54;74.72
66398;BME280;54877;51.504;3.894;2023-07-31T11:44:05;100664.16;;;21.58;74.62
66398;BME280;54877;51.504;3.894;2023-07-31T11:46:30;100649.16;;;21.56;75.07
66398;BME280;54877;51.504;3.894;2023-07-31T11:48:59;100650.53;;;21.60;75.09
66398;BME280;54877;51.504;3.894;2023-07-31T11:51:25;100637.94;;;21.78;75.25
66398;BME280;54877;51.504;3.894;2023-07-31T11:53:55;100635.16;;;21.70;75.29
66398;BME280;54877;51.504;3.894;2023-07-31T11:56:23;100626.69;;;21.65;74.88
66398;BME280;54877;51.504;3.894;2023-07-31T11:58:53;100620.66;;;21.71;74.58
66398;BME280;54877;51.504;3.894;2023-07-31T12:01:21;100641.47;;;21.61;74.20
66398;BME280;54877;51.504;3.894;2023-07-31T12:03:47;100633.47;;;21.69;73.96
66398;BME280;54877;51.504;3.894;2023-07-31T12:06:14;100631.44;;;21.71;73.96
66398;BME280;54877;51.504;3.894;2023-07-31T12:08:39;100635.25;;;21.78;73.94
66398;BME280;54877;51.504;3.894;2023-07-31T12:11:06;100628.16;;;21.59;73.91
66398;BME280;54877;51.504;3.894;2023-07-31T12:13:34;100617.59;;;21.66;73.63
66398;BME280;54877;51.504;3.894;2023-07-31T12:16:01;100613.84;;;21.32;74.17
66398;BME280;54877;51.504;3.894;2023-07-31T12:18:28;100609.84;;;21.36;74.47
66398;BME280;54877;51.504;3.894;2023-07-31T12:20:59;100618.03;;;21.44;74.18
66398;BME280;54877;51.504;3.894;2023-07-31T12:23:26;100615.31;;;21.44;74.03
66398;BME280;54877;51.504;3.894;2023-07-31T12:26:04;100610.97;;;21.43;73.98
66398;BME280;54877;51.504;3.894;2023-07-31T12:28:47;100619.44;;;21.48;73.75
66398;BME280;54877;51.504;3.894;2023-07-31T12:31:18;100635.81;;;21.54;73.64
66398;BME280;54877;51.504;3.894;2023-07-31T12:33:45;100629.28;;;21.57;73.63
66398;BME280;54877;51.504;3.894;2023-07-31T12:36:13;100640.41;;;21.44;73.11
66398;BME280;54877;51.504;3.894;2023-07-31T12:38:40;100627.31;;;21.59;73.01
66398;BME280;54877;51.504;3.894;2023-07-31T12:41:06;100629.22;;;21.66;73.43
66398;BME280;54877;51.504;3.894;2023-07-31T12:43:33;100619.06;;;21.78;73.72
66398;BME280;54877;51.504;3.894;2023-07-31T12:46:02;100601.88;;;21.79;74.01
66398;BME280;54877;51.504;3.894;2023-07-31T12:48:28;100602.81;;;21.70;74.37
66398;BME280;54877;51.504;3.894;2023-07-31T12:50:53;100603.72;;;21.61;75.04
66398;BME280;54877;51.504;3.894;2023-07-31T12:53:18;100595.19;;;21.65;75.11
66398;BME280;54877;51.504;3.894;2023-07-31T12:55:44;100591.72;;;21.55;75.61
66398;BME280;54877;51.504;3.894;2023-07-31T12:58:09;100585.34;;;21.56;75.36